Time;durP1;ratioP1;P1;durP2;ratioP2;P2;SDS_P1;SDS_P2;PMS_P1;PMS_P2;Temp;Humidity;BMP_temperature;BMP_pressure;BME280_temperature;BME280_humidity;BME280_pressure;Samples;Min_cycle;Max_cycle;Signal;HPM_P1;HPM_P2
2023/08/23 00:00:57;;;;;;;12.60;11.40;;;;;;;22.35;86.13;96764.33;108827;1272;25415;-76
2023/08/23 00:03:38;;;;;;;13.90;12.40;;;;;;;22.29;86.42;96755.95;108830;1271;23033;-76
2023/08/23 00:06:07;;;;;;;13.40;12.10;;;;;;;22.28;86.65;96751.59;108815;1269;22518;-76
2023/08/23 00:08:36;;;;;;;12.40;11.20;;;;;;;22.31;86.83;96750.36;108769;1272;53617;-76
2023/08/23 00:11:05;;;;;;;13.10;11.60;;;;;;;22.37;86.85;96749.02;108875;1272;22572;-76
2023/08/23 00:13:34;;;;;;;16.10;12.20;;;;;;;22.37;86.62;96754.02;108835;1272;24287;-77
2023/08/23 00:16:03;;;;;;;13.80;12.00;;;;;;;22.37;86.96;96754.90;108824;1269;22561;-77
2023/08/23 00:18:32;;;;;;;12.70;10.90;;;;;;;22.41;87.19;96759.31;108849;1269;53360;-77
2023/08/23 00:21:01;;;;;;;13.20;11.30;;;;;;;22.45;87.58;96762.58;108889;1272;27688;-76
2023/08/23 00:23:30;;;;;;;13.50;11.70;;;;;;;22.48;87.63;96754.98;108792;1264;22528;-76
2023/08/23 00:25:58;;;;;;;11.40;10.20;;;;;;;22.46;87.72;96758.04;108799;1269;22538;-77
2023/08/23 00:28:27;;;;;;;13.20;10.90;;;;;;;22.43;87.86;96768.84;108669;1267;38685;-76
2023/08/23 00:30:57;;;;;;;12.30;10.40;;;;;;;22.38;87.75;96768.34;108840;1269;22524;-77
2023/08/23 00:33:28;;;;;;;11.20;10.20;;;;;;;22.35;87.88;96767.11;108897;1264;22550;-76
2023/08/23 00:35:57;;;;;;;11.40;9.30;;;;;;;22.34;87.58;96775.26;108800;1272;22566;-76
2023/08/23 00:38:25;;;;;;;;;;;;;;;22.32;87.24;96789.02;108735;1269;60675;-76
2023/08/23 00:40:57;;;;;;;9.50;8.00;;;;;;;22.26;87.07;96796.55;108863;1269;25294;-76
2023/08/23 00:43:25;;;;;;;11.00;9.60;;;;;;;22.17;87.09;96799.11;108920;1259;24375;-76
2023/08/23 00:45:55;;;;;;;10.20;9.20;;;;;;;22.06;87.47;96797.73;108815;1270;26217;-76
2023/08/23 00:48:24;;;;;;;10.10;9.10;;;;;;;21.98;87.62;96802.52;108738;1271;22570;-76
2023/08/23 00:50:53;;;;;;;10.70;8.80;;;;;;;21.91;87.94;96798.73;108770;1269;22667;-77
2023/08/23 00:53:23;;;;;;;9.40;8.00;;;;;;;21.90;88.32;96788.14;108817;1272;22557;-76
2023/08/23 00:55:53;;;;;;;10.80;9.40;;;;;;;21.88;88.36;96789.84;108857;1264;22528;-76
2023/08/23 00:58:22;;;;;;;9.70;8.80;;;;;;;21.88;88.75;96793.39;108819;1268;24240;-76
2023/08/23 01:00:55;;;;;;;10.60;9.50;;;;;;;21.94;89.31;96797.16;108865;1267;22527;-76
2023/08/23 01:03:26;;;;;;;10.80;9.30;;;;;;;22.00;89.55;96798.41;108833;1269;22691;-76
2023/08/23 01:06:06;;;;;;;11.10;9.70;;;;;;;22.03;89.62;96791.69;108806;1269;22645;-76
2023/08/23 01:08:43;;;;;;;10.80;9.80;;;;;;;22.05;89.77;96789.05;109250;1271;26458;-76
2023/08/23 01:11:22;;;;;;;11.00;9.90;;;;;;;22.05;89.74;96785.68;108877;1272;22533;-76
2023/08/23 01:14:09;;;;;;;11.90;10.70;;;;;;;22.06;90.07;96779.60;108857;1271;22528;-76
2023/08/23 01:16:41;;;;;;;11.80;10.20;;;;;;;21.99;89.63;96780.42;109291;1269;22520;-77
2023/08/23 01:19:28;;;;;;;11.70;10.40;;;;;;;21.89;89.58;96785.17;109303;1269;22518;-76
2023/08/23 01:21:58;;;;;;;11.40;10.20;;;;;;;21.77;89.37;96779.70;109326;1272;22671;-76
2023/08/23 01:24:28;;;;;;;10.90;9.80;;;;;;;21.71;89.86;96772.53;109240;1269;22551;-76
2023/08/23 01:26:56;;;;;;;10.70;9.60;;;;;;;21.72;90.28;96771.55;108819;1271;22551;-76
2023/08/23 01:29:26;;;;;;;10.90;9.80;;;;;;;21.76;90.24;96771.42;108792;1272;22524;-77
2023/08/23 01:32:01;;;;;;;10.20;9.20;;;;;;;21.71;89.90;96774.60;108853;1269;22575;-76
2023/08/23 01:34:36;;;;;;;11.00;9.70;;;;;;;21.62;90.18;96765.88;108808;1271;24260;-76
2023/08/23 01:37:06;;;;;;;10.20;9.20;;;;;;;21.60;90.70;96761.69;108830;1269;22597;-76
2023/08/23 01:39:39;;;;;;;13.00;10.30;;;;;;;21.55;90.60;96762.54;109214;1271;22531;-76
2023/08/23 01:42:09;;;;;;;11.70;10.40;;;;;;;21.46;90.79;96769.79;108751;1270;23350;-76
2023/08/23 01:44:43;;;;;;;11.80;10.10;;;;;;;21.35;91.13;96770.02;108826;1264;22538;-76
2023/08/23 01:47:14;;;;;;;11.50;10.40;;;;;;;21.27;91.51;96766.35;108798;1272;22541;-76
2023/08/23 01:49:43;;;;;;;10.80;9.70;;;;;;;21.25;92.04;96761.34;108812;1247;22541;-76
2023/08/23 01:52:15;;;;;;;10.10;9.10;;;;;;;21.22;91.98;96757.39;108813;1272;22559;-76
2023/08/23 01:54:44;;;;;;;11.60;9.40;;;;;;;21.16;92.08;96760.69;108813;1269;25413;-77
2023/08/23 01:57:14;;;;;;;;;;;;;;;21.06;92.25;96772.64;108846;1272;22567;-76
2023/08/23 01:59:44;;;;;;;11.20;9.80;;;;;;;20.97;92.61;96767.99;108755;1264;22524;-76
2023/08/23 02:02:13;;;;;;;10.10;9.20;;;;;;;20.92;93.05;96765.31;109227;1269;22544;-76
2023/08/23 02:04:42;;;;;;;10.80;9.70;;;;;;;20.90;93.39;96765.73;108854;1269;22618;-76
2023/08/23 02:07:10;;;;;;;12.40;10.40;;;;;;;20.91;93.77;96769.90;108794;1266;22531;-76
2023/08/23 02:09:39;;;;;;;11.40;9.50;;;;;;;20.93;94.18;96767.88;109295;1272;22532;-76
2023/08/23 02:12:08;;;;;;;12.80;11.40;;;;;;;20.97;94.43;96768.00;109290;1272;22476;-77
2023/08/23 02:14:37;;;;;;;10.60;9.50;;;;;;;21.01;94.56;96771.97;109267;1271;22551;-76
2023/08/23 02:17:06;;;;;;;10.80;9.70;;;;;;;21.02;94.82;96773.09;108798;1272;25250;-76
2023/08/23 02:19:35;;;;;;;12.30;9.90;;;;;;;20.97;95.31;96773.68;109297;1272;22528;-76
2023/08/23 02:22:04;;;;;;;10.50;9.40;;;;;;;20.92;95.53;96779.94;109281;1272;25369;-76
2023/08/23 02:24:32;;;;;;;11.10;9.90;;;;;;;20.89;95.61;96784.10;108966;1264;22528;-76
2023/08/23 02:27:03;;;;;;;10.70;9.70;;;;;;;20.87;95.83;96781.80;108821;1271;24262;-77
2023/08/23 02:29:32;;;;;;;13.20;10.00;;;;;;;20.85;95.96;96777.14;108828;1272;22599;-77
2023/08/23 02:32:02;;;;;;;11.10;9.90;;;;;;;20.86;96.17;96768.38;109308;1272;23728;-77
2023/08/23 02:34:31;;;;;;;13.80;9.90;;;;;;;20.84;96.15;96755.55;109325;1264;22575;-77
2023/08/23 02:36:59;;;;;;;10.90;9.80;;;;;;;20.80;95.94;96752.34;109228;1272;24388;-77
2023/08/23 02:39:28;;;;;;;11.50;10.10;;;;;;;20.79;96.30;96751.60;109180;1269;22548;-77
2023/08/23 02:41:57;;;;;;;12.30;10.90;;;;;;;20.80;96.46;96754.27;109301;1267;24241;-76
2023/08/23 02:44:25;;;;;;;11.00;9.90;;;;;;;20.78;96.48;96750.03;109264;1272;25360;-77
2023/08/23 02:46:53;;;;;;;11.40;9.40;;;;;;;20.73;96.46;96748.37;109243;1269;22557;-76
2023/08/23 02:49:21;;;;;;;11.10;9.40;;;;;;;20.74;97.13;96742.08;109212;1264;22524;-76
2023/08/23 02:51:50;;;;;;;10.40;9.40;;;;;;;20.84;97.46;96742.97;109235;1271;23914;-77
2023/08/23 02:54:18;;;;;;;10.30;9.30;;;;;;;20.90;97.47;96739.79;109268;1272;22525;-77
2023/08/23 02:56:46;;;;;;;10.60;9.00;;;;;;;20.95;97.26;96739.73;109282;1266;22540;-77
2023/08/23 02:59:15;;;;;;;10.60;8.90;;;;;;;20.97;97.27;96747.99;109159;1272;22589;-76
2023/08/23 03:01:43;;;;;;;9.80;8.20;;;;;;;21.00;97.06;96754.00;109207;1272;22528;-76
2023/08/23 03:04:11;;;;;;;9.80;8.80;;;;;;;21.03;97.13;96754.02;109175;1269;22543;-76
2023/08/23 03:06:39;;;;;;;10.50;8.60;;;;;;;21.12;97.33;96752.16;109138;1272;22546;-77
2023/08/23 03:09:08;;;;;;;10.00;8.50;;;;;;;21.18;96.92;96753.66;108929;1272;24997;-76
2023/08/23 03:11:36;;;;;;;8.40;7.60;;;;;;;21.18;96.66;96753.73;108792;1272;24269;-76
2023/08/23 03:14:05;;;;;;;9.30;7.90;;;;;;;21.21;96.66;96753.50;108880;1267;25405;-76
2023/08/23 03:16:33;;;;;;;9.00;8.00;;;;;;;21.28;96.43;96752.27;108812;1269;41798;-76
2023/08/23 03:19:02;;;;;;;9.80;7.70;;;;;;;21.31;95.84;96757.45;108842;1264;22524;-76
2023/08/23 03:21:30;;;;;;;8.50;7.60;;;;;;;21.30;95.56;96767.04;108901;1272;22570;-76
2023/08/23 03:23:58;;;;;;;8.20;7.40;;;;;;;21.32;95.37;96767.10;108883;1272;22996;-75
2023/08/23 03:26:27;;;;;;;8.60;7.60;;;;;;;21.36;94.97;96762.24;108863;1267;41091;-76
2023/08/23 03:28:55;;;;;;;8.50;7.60;;;;;;;21.38;94.68;96755.30;108868;1272;22562;-76
2023/08/23 03:31:23;;;;;;;8.00;7.20;;;;;;;21.41;94.35;96756.94;108901;1272;22532;-76
2023/08/23 03:33:52;;;;;;;8.60;7.60;;;;;;;21.38;94.02;96751.29;108854;1263;24386;-75
2023/08/23 03:36:20;;;;;;;8.90;7.50;;;;;;;21.35;93.97;96749.66;108850;1271;40603;-76
2023/08/23 03:38:49;;;;;;;7.70;6.90;;;;;;;21.32;93.92;96744.83;108884;1272;23288;-75
2023/08/23 03:41:18;;;;;;;8.90;8.00;;;;;;;21.31;93.95;96747.71;108873;1272;25392;-76
2023/08/23 03:43:46;;;;;;;10.20;9.00;;;;;;;21.27;94.03;96755.24;108842;1272;22646;-76
2023/08/23 03:46:15;;;;;;;9.20;8.20;;;;;;;21.25;94.21;96751.47;108825;1269;60501;-76
2023/08/23 03:48:43;;;;;;;9.00;8.10;;;;;;;21.21;94.39;96754.27;108866;1272;24159;-75
2023/08/23 03:51:11;;;;;;;10.60;8.20;;;;;;;21.19;94.93;96756.06;108838;1272;22548;-76
2023/08/23 03:53:40;;;;;;;10.20;9.10;;;;;;;21.17;95.01;96752.08;108851;1272;24384;-76
2023/08/23 03:56:08;;;;;;;9.00;8.10;;;;;;;21.11;95.11;96754.00;108896;1272;22498;-76
2023/08/23 03:58:37;;;;;;;10.10;9.00;;;;;;;21.06;95.29;96762.55;108848;1272;24291;-77
2023/08/23 04:01:07;;;;;;;10.50;9.40;;;;;;;21.03;95.51;96767.80;108850;1272;22522;-76
2023/08/23 04:03:35;;;;;;;10.20;8.30;;;;;;;21.01;95.69;96765.89;108917;1271;22635;-76
2023/08/23 04:06:04;;;;;;;9.40;8.40;;;;;;;21.00;95.92;96762.18;108860;1272;24212;-77
2023/08/23 04:08:35;;;;;;;9.50;8.60;;;;;;;21.01;96.02;96758.27;108831;1264;63349;-77
2023/08/23 04:11:03;;;;;;;10.40;9.30;;;;;;;21.04;96.09;96761.42;108805;1266;22664;-77
2023/08/23 04:13:32;;;;;;;9.90;8.50;;;;;;;21.05;96.13;96761.61;108895;1272;22536;-77
2023/08/23 04:16:00;;;;;;;11.20;9.50;;;;;;;21.05;96.24;96766.31;108832;1272;22488;-76
2023/08/23 04:18:29;;;;;;;11.10;10.00;;;;;;;21.05;96.10;96772.94;107544;1272;1857299;-77
2023/08/23 04:21:01;;;;;;;11.60;10.40;;;;;;;21.03;96.28;96776.20;108891;1264;22574;-77
2023/08/23 04:23:30;;;;;;;11.00;10.00;;;;;;;21.04;96.35;96774.89;108869;1272;22525;-77
2023/08/23 04:25:58;;;;;;;11.50;10.10;;;;;;;21.05;96.50;96779.23;108908;1272;22490;-77
2023/08/23 04:28:26;;;;;;;;;;;;;;;21.05;96.38;96781.16;108857;1267;32883;-77
2023/08/23 04:31:01;;;;;;;10.70;9.70;;;;;;;21.04;96.46;96782.77;108860;1271;25437;-76
2023/08/23 04:33:29;;;;;;;11.80;10.30;;;;;;;21.06;96.51;96785.05;108877;1269;22557;-77
2023/08/23 04:35:57;;;;;;;13.90;10.60;;;;;;;21.05;96.28;96780.02;108841;1271;22539;-76
2023/08/23 04:38:26;;;;;;;11.10;10.00;;;;;;;21.04;96.44;96772.07;108745;1271;27681;-76
2023/08/23 04:41:00;;;;;;;10.80;9.70;;;;;;;21.09;96.54;96775.33;108844;1272;24390;-76
2023/08/23 04:43:29;;;;;;;11.20;9.90;;;;;;;21.09;96.40;96781.57;109030;1269;23340;-76
2023/08/23 04:45:58;;;;;;;11.00;9.90;;;;;;;21.14;96.66;96781.59;108853;1266;24269;-76
2023/08/23 04:48:27;;;;;;;12.10;10.10;;;;;;;21.19;96.65;96786.52;108823;1266;48381;-77
2023/08/23 04:50:56;;;;;;;11.20;9.50;;;;;;;21.24;96.67;96787.42;108889;1272;24565;-77
2023/08/23 04:53:25;;;;;;;11.00;10.00;;;;;;;21.30;96.86;96786.00;108814;1271;24241;-76
2023/08/23 04:55:57;;;;;;;11.50;10.10;;;;;;;21.36;96.75;96782.36;108826;1271;22743;-76
2023/08/23 04:58:29;;;;;;;11.70;9.30;;;;;;;21.39;96.43;96785.16;108804;1270;41892;-77
2023/08/23 05:00:59;;;;;;;11.30;9.50;;;;;;;21.43;96.35;96789.67;108839;1266;22531;-77
2023/08/23 05:03:29;;;;;;;11.50;10.40;;;;;;;21.42;96.11;96792.17;108888;1267;25086;-77
2023/08/23 05:05:57;;;;;;;10.90;9.80;;;;;;;21.39;96.15;96792.09;108858;1264;22520;-77
2023/08/23 05:08:26;;;;;;;11.10;9.90;;;;;;;21.41;96.06;96794.61;109086;1264;22549;-77
2023/08/23 05:10:56;;;;;;;9.80;8.80;;;;;;;21.41;96.09;96793.38;108805;1272;22518;-77
2023/08/23 05:13:24;;;;;;;11.40;10.10;;;;;;;21.43;96.25;96784.66;109197;1272;22548;-77
2023/08/23 05:15:53;;;;;;;10.80;9.80;;;;;;;21.47;96.26;96777.19;109199;1264;22629;-77
2023/08/23 05:18:22;;;;;;;10.50;9.50;;;;;;;21.51;96.21;96778.00;108828;1272;83778;-77
2023/08/23 05:20:54;;;;;;;11.00;9.50;;;;;;;21.53;96.18;96776.50;109153;1264;22531;-77
2023/08/23 05:23:24;;;;;;;11.10;10.00;;;;;;;21.55;96.00;96777.91;109242;1272;22598;-77
2023/08/23 05:25:53;;;;;;;14.40;9.70;;;;;;;21.58;96.00;96786.92;109224;1267;22620;-80
2023/08/23 05:28:22;;;;;;;11.90;9.80;;;;;;;21.57;95.68;96790.29;109196;1270;25284;-81
2023/08/23 05:30:51;;;;;;;12.00;9.90;;;;;;;21.57;95.66;96796.84;109114;1267;22489;-81
2023/08/23 05:33:20;;;;;;;9.50;8.60;;;;;;;21.59;95.84;96796.81;109155;1272;22552;-81
2023/08/23 05:35:49;;;;;;;10.30;9.20;;;;;;;21.63;95.76;96802.84;109232;1272;22542;-80
2023/08/23 05:38:19;;;;;;;11.20;9.90;;;;;;;21.66;95.45;96809.69;109242;1271;22518;-80
2023/08/23 05:40:48;;;;;;;10.50;9.40;;;;;;;21.67;95.31;96810.09;109189;1271;22553;-80
2023/08/23 05:43:16;;;;;;;11.20;9.20;;;;;;;21.70;95.40;96810.75;109169;1260;22508;-80
2023/08/23 05:45:46;;;;;;;11.20;9.70;;;;;;;21.73;95.25;96810.27;109091;1264;22514;-79
2023/08/23 05:48:16;;;;;;;10.60;9.20;;;;;;;21.78;95.29;96808.78;109182;1270;22552;-80
2023/08/23 05:50:45;;;;;;;10.70;8.40;;;;;;;21.86;95.28;96813.10;109207;1266;22541;-80
2023/08/23 05:53:18;;;;;;;11.00;9.90;;;;;;;21.99;95.25;96814.27;109119;1272;25507;-79
2023/08/23 05:55:48;;;;;;;10.10;9.00;;;;;;;22.36;96.79;96809.73;109165;1272;24086;-79
2023/08/23 05:58:18;;;;;;;9.90;8.80;;;;;;;23.03;96.95;96809.80;109171;1264;25016;-80
2023/08/23 06:00:48;;;;;;;11.00;8.40;;;;;;;23.66;95.67;96807.87;109229;1264;22532;-79
2023/08/23 06:03:17;;;;;;;;;;;;;;;24.16;94.43;96806.68;109196;1265;24005;-80
2023/08/23 06:05:47;;;;;;;10.10;9.00;;;;;;;24.59;93.00;96806.92;109231;1272;22557;-80
2023/08/23 06:08:16;;;;;;;11.20;8.80;;;;;;;24.81;90.91;96805.48;109191;1267;23823;-80
2023/08/23 06:10:45;;;;;;;9.90;8.70;;;;;;;24.81;89.81;96803.16;109245;1272;22478;-80
2023/08/23 06:13:13;;;;;;;9.30;8.20;;;;;;;24.98;89.61;96804.48;109230;1264;24472;-81
2023/08/23 06:15:42;;;;;;;9.10;8.20;;;;;;;25.14;88.46;96801.54;109171;1263;22723;-80
2023/08/23 06:18:10;;;;;;;10.10;8.90;;;;;;;25.28;88.07;96802.80;109140;1264;24285;-81
2023/08/23 06:20:43;;;;;;;12.50;8.50;;;;;;;25.34;86.89;96798.67;109236;1270;22524;-80
2023/08/23 06:23:12;;;;;;;10.40;9.00;;;;;;;25.29;85.67;96801.02;109285;1264;22553;-79
2023/08/23 06:25:41;;;;;;;9.20;8.30;;;;;;;25.06;85.22;96801.27;109182;1271;22663;-81
2023/08/23 06:28:09;;;;;;;10.80;8.80;;;;;;;24.98;84.41;96810.23;109178;1264;26417;-78
2023/08/23 06:30:39;;;;;;;11.20;10.00;;;;;;;24.68;83.33;96810.24;109185;1264;22521;-80
2023/08/23 06:33:08;;;;;;;10.70;9.30;;;;;;;24.25;83.13;96813.40;109161;1272;22566;-80
2023/08/23 06:35:36;;;;;;;10.10;8.90;;;;;;;23.82;83.50;96822.79;109148;1272;22538;-80
2023/08/23 06:38:05;;;;;;;11.00;9.90;;;;;;;23.51;84.04;96826.98;109187;1264;22548;-80
2023/08/23 06:40:35;;;;;;;12.40;11.20;;;;;;;23.29;84.81;96826.52;109118;1272;22572;-79
2023/08/23 06:43:04;;;;;;;13.00;11.60;;;;;;;23.09;84.97;96826.95;109204;1270;22612;-79
2023/08/23 06:45:33;;;;;;;12.90;11.60;;;;;;;22.86;85.36;96831.23;108851;1270;22521;-78
2023/08/23 06:48:01;;;;;;;13.70;12.30;;;;;;;22.65;85.73;96836.20;108794;1271;26617;-79
2023/08/23 06:50:29;;;;;;;13.50;12.10;;;;;;;22.51;86.49;96835.26;108910;1264;22550;-81
2023/08/23 06:52:58;;;;;;;14.40;13.00;;;;;;;22.44;87.19;96839.19;109185;1272;22528;-78
2023/08/23 06:55:27;;;;;;;14.30;12.90;;;;;;;22.50;87.82;96838.48;109175;1270;24926;-77
2023/08/23 06:57:55;;;;;;;14.40;13.10;;;;;;;22.73;88.39;96836.31;109191;1264;22535;-77
2023/08/23 07:00:23;;;;;;;15.40;13.80;;;;;;;22.89;88.22;96836.79;109212;1264;22559;-78
2023/08/23 07:02:52;;;;;;;15.00;13.60;;;;;;;22.88;87.81;96841.08;108897;1272;22538;-77
2023/08/23 07:05:20;;;;;;;15.50;13.90;;;;;;;22.78;87.54;96849.02;108868;1271;23181;-77
2023/08/23 07:07:48;;;;;;;15.60;13.70;;;;;;;22.69;87.63;96848.67;108811;1271;22530;-76
2023/08/23 07:10:17;;;;;;;15.50;14.00;;;;;;;22.54;87.70;96852.32;108871;1272;22525;-77
2023/08/23 07:12:46;;;;;;;15.90;14.40;;;;;;;22.42;88.17;96856.96;108925;1272;22515;-78
2023/08/23 07:15:15;;;;;;;16.00;14.60;;;;;;;22.45;88.95;96856.48;109173;1264;22532;-77
2023/08/23 07:17:43;;;;;;;15.60;14.00;;;;;;;22.62;89.45;96859.70;109204;1264;22667;-74
2023/08/23 07:20:14;;;;;;;19.10;17.20;;;;;;;22.73;88.77;96862.73;108807;1267;22543;-75
2023/08/23 07:22:43;;;;;;;20.00;18.00;;;;;;;22.64;88.36;96860.36;108861;1272;22522;-78
2023/08/23 07:25:11;;;;;;;20.10;18.10;;;;;;;22.61;88.96;96860.05;109196;1272;22549;-78
2023/08/23 07:27:40;;;;;;;20.60;18.60;;;;;;;22.67;88.87;96857.27;109104;1267;143279;-79
2023/08/23 07:30:11;;;;;;;19.60;17.60;;;;;;;22.75;89.43;96854.11;109063;1266;22623;-78
2023/08/23 07:32:40;;;;;;;19.20;17.30;;;;;;;23.01;90.42;96851.81;109132;1272;22532;-78
2023/08/23 07:35:10;;;;;;;18.50;16.80;;;;;;;23.40;90.00;96858.05;109174;1272;22518;-78
2023/08/23 07:37:38;;;;;;;19.70;17.60;;;;;;;23.39;88.29;96863.52;109108;1272;62975;-77
2023/08/23 07:40:09;;;;;;;22.30;20.10;;;;;;;23.24;87.80;96865.29;109125;1268;22529;-77
2023/08/23 07:42:38;;;;;;;20.50;18.70;;;;;;;23.12;87.60;96866.59;109189;1272;25486;-77
2023/08/23 07:45:08;;;;;;;22.10;19.80;;;;;;;23.28;88.64;96869.63;109188;1272;22520;-77
2023/08/23 07:47:37;;;;;;;21.60;19.50;;;;;;;23.60;88.29;96871.70;109171;1264;22529;-77
2023/08/23 07:50:08;;;;;;;21.80;19.70;;;;;;;23.68;87.15;96868.48;109069;1258;22715;-77
2023/08/23 07:52:38;;;;;;;22.90;20.70;;;;;;;23.50;86.39;96875.89;109287;1264;22524;-77
2023/08/23 07:55:09;;;;;;;23.40;21.00;;;;;;;23.32;86.40;96876.67;108994;1264;26571;-77
2023/08/23 07:57:37;;;;;;;21.70;19.70;;;;;;;23.12;86.43;96876.54;109297;1267;22632;-77
2023/08/23 08:00:09;;;;;;;22.90;20.70;;;;;;;22.92;86.50;96880.89;109228;1271;22546;-76
2023/08/23 08:02:38;;;;;;;22.50;20.30;;;;;;;22.77;87.04;96881.05;109224;1264;22521;-76
2023/08/23 08:05:07;;;;;;;21.60;19.60;;;;;;;22.80;87.90;96879.96;109124;1267;22631;-76
2023/08/23 08:07:36;;;;;;;22.10;20.20;;;;;;;22.90;88.08;96883.14;108962;1266;22526;-76
2023/08/23 08:10:06;;;;;;;22.90;20.70;;;;;;;22.89;88.05;96886.77;109189;1266;22535;-78
2023/08/23 08:12:34;;;;;;;22.80;20.60;;;;;;;22.87;88.11;96881.53;108811;1271;22547;-77
2023/08/23 08:15:06;;;;;;;22.80;20.70;;;;;;;22.87;88.01;96882.93;108878;1272;22545;-78
2023/08/23 08:17:35;;;;;;;22.80;20.60;;;;;;;22.84;87.97;96886.02;108827;1272;22544;-79
2023/08/23 08:20:05;;;;;;;24.00;21.70;;;;;;;22.87;88.45;96886.88;109188;1254;24234;-78
2023/08/23 08:22:34;;;;;;;22.60;20.50;;;;;;;22.96;88.67;96886.15;109181;1265;22621;-78
2023/08/23 08:25:04;;;;;;;21.60;19.40;;;;;;;23.21;88.78;96889.56;109209;1268;22524;-77
2023/08/23 08:27:33;;;;;;;24.10;21.60;;;;;;;23.40;87.88;96887.59;109128;1272;23030;-78
2023/08/23 08:30:02;;;;;;;20.30;18.50;;;;;;;23.47;87.67;96882.55;109218;1272;22573;-79
2023/08/23 08:32:30;;;;;;;;;;;;;;;23.56;87.03;96886.80;108975;1272;22502;-80
2023/08/23 08:35:01;;;;;;;;;;;;;;;23.74;87.15;96888.69;108866;1266;22517;-79
2023/08/23 08:37:29;;;;;;;21.60;19.40;;;;;;;23.91;86.53;96891.20;109166;1271;22525;-79
2023/08/23 08:39:57;;;;;;;20.50;18.60;;;;;;;24.26;87.12;96889.30;109151;1264;22521;-82
2023/08/23 08:42:26;;;;;;;18.80;17.10;;;;;;;24.62;86.05;96889.15;109160;1270;23267;-81
2023/08/23 08:44:55;;;;;;;20.50;18.40;;;;;;;24.78;84.93;96890.59;109155;1272;22573;-78
2023/08/23 08:47:27;;;;;;;20.40;18.40;;;;;;;24.93;83.91;96884.84;109160;1272;22587;-80
2023/08/23 08:49:57;;;;;;;20.50;18.60;;;;;;;25.04;83.16;96885.56;109226;1264;22532;-82
2023/08/23 08:52:28;;;;;;;19.10;17.30;;;;;;;25.12;82.78;96888.17;109280;1271;22532;-80
2023/08/23 08:54:59;;;;;;;19.10;17.30;;;;;;;25.21;81.37;96884.65;108853;1264;22570;-80
2023/08/23 08:57:29;;;;;;;19.80;17.90;;;;;;;24.99;80.21;96888.58;109119;1266;22548;-79
2023/08/23 09:00:00;;;;;;;19.40;17.40;;;;;;;24.90;80.00;96888.37;109228;1269;22626;-79
2023/08/23 09:02:33;;;;;;;19.00;17.20;;;;;;;24.84;79.74;96886.58;109254;1266;22529;-80
2023/08/23 09:05:04;;;;;;;19.80;17.90;;;;;;;24.71;79.52;96890.86;108881;1264;22686;-80
2023/08/23 09:07:35;;;;;;;18.20;16.50;;;;;;;24.73;79.27;96888.87;109171;1264;22521;-80
2023/08/23 09:10:04;;;;;;;21.70;19.60;;;;;;;24.47;78.85;96898.58;109264;1271;22548;-80
2023/08/23 09:12:33;;;;;;;20.90;18.80;;;;;;;24.36;79.52;96900.34;109174;1271;22538;-80
2023/08/23 09:15:05;;;;;;;21.60;19.30;;;;;;;24.31;79.94;96904.04;109221;1269;24244;-80
2023/08/23 09:17:35;;;;;;;24.30;22.00;;;;;;;24.24;80.06;96901.19;109151;1263;22540;-81
2023/08/23 09:20:08;;;;;;;21.60;19.50;;;;;;;24.22;80.53;96898.77;108861;1271;24169;-81
2023/08/23 09:22:37;;;;;;;20.70;18.70;;;;;;;24.34;80.80;96901.99;109186;1263;24272;-80
2023/08/23 09:25:08;;;;;;;21.70;19.40;;;;;;;24.49;80.84;96902.50;109185;1269;22601;-82
2023/08/23 09:27:38;;;;;;;20.60;18.50;;;;;;;24.65;80.32;96896.50;109170;1267;22593;-81
2023/08/23 09:30:08;;;;;;;19.40;17.40;;;;;;;24.69;80.02;96896.23;109198;1266;22609;-81
2023/08/23 09:32:37;;;;;;;21.80;19.70;;;;;;;24.71;79.74;96895.89;109170;1265;22561;-78
2023/08/23 09:35:15;;;;;;;20.30;18.30;;;;;;;24.77;79.86;96893.89;108896;1271;22525;-78
2023/08/23 09:37:45;;;;;;;20.30;18.40;;;;;;;24.89;79.32;96893.37;109168;1272;24208;-77
2023/08/23 09:40:18;;;;;;;19.00;17.10;;;;;;;25.00;79.70;96895.33;109222;1266;22518;-77
2023/08/23 09:42:48;;;;;;;19.60;17.50;;;;;;;25.06;79.03;96894.92;108939;1269;22548;-78
2023/08/23 09:45:20;;;;;;;19.20;17.30;;;;;;;25.08;78.57;96893.46;108960;1272;25450;-79
2023/08/23 09:47:52;;;;;;;19.10;17.20;;;;;;;25.12;78.26;96891.27;109196;1272;22558;-80
2023/08/23 09:50:25;;;;;;;19.00;17.20;;;;;;;25.11;77.89;96888.55;109189;1264;22527;-80
2023/08/23 09:53:01;;;;;;;21.60;19.00;;;;;;;25.10;77.78;96886.45;109212;1269;22524;-80
2023/08/23 09:55:32;;;;;;;20.40;18.10;;;;;;;25.11;77.79;96887.39;109191;1271;24212;-78
2023/08/23 09:58:03;;;;;;;19.70;17.50;;;;;;;25.11;77.18;96888.93;109239;1263;23314;-78
2023/08/23 10:00:32;;;;;;;17.60;15.80;;;;;;;25.13;77.46;96893.77;109259;1272;22525;-79
2023/08/23 10:03:01;;;;;;;22.50;19.90;;;;;;;25.09;77.23;96894.96;109292;1270;25389;-80
2023/08/23 10:05:30;;;;;;;20.70;18.50;;;;;;;25.10;77.46;96889.86;109263;1272;22540;-79
2023/08/23 10:07:58;;;;;;;24.10;19.10;;;;;;;25.12;76.98;96887.41;109315;1264;49731;-78
2023/08/23 10:10:29;;;;;;;21.80;19.70;;;;;;;25.09;76.77;96886.82;109284;1264;22551;-79
2023/08/23 10:13:04;;;;;;;21.20;19.00;;;;;;;25.11;77.03;96886.23;109242;1272;22528;-79
2023/08/23 10:15:36;;;;;;;21.10;19.00;;;;;;;25.14;76.64;96887.81;109327;1266;22574;-78
2023/08/23 10:18:08;;;;;;;21.40;19.20;;;;;;;25.09;76.33;96888.69;109354;1271;25435;-79
2023/08/23 10:20:38;;;;;;;18.50;16.50;;;;;;;25.09;76.32;96888.22;109522;1266;22533;-78
2023/08/23 10:23:12;;;;;;;18.90;17.10;;;;;;;25.19;76.08;96889.98;109251;1272;22517;-78
2023/08/23 10:25:43;;;;;;;20.80;18.80;;;;;;;25.29;76.17;96881.44;109174;1272;22540;-80
2023/08/23 10:28:15;;;;;;;22.30;20.00;;;;;;;25.28;75.29;96877.92;109274;1264;22531;-78
2023/08/23 10:30:45;;;;;;;20.20;18.10;;;;;;;25.35;75.92;96881.66;109221;1271;22521;-79
2023/08/23 10:33:16;;;;;;;22.00;19.90;;;;;;;25.39;75.34;96883.05;109229;1271;22541;-79
2023/08/23 10:35:46;;;;;;;20.30;18.30;;;;;;;25.36;74.98;96881.85;109212;1271;22590;-80
2023/08/23 10:38:15;;;;;;;18.40;16.50;;;;;;;25.25;74.04;96877.67;109172;1272;47201;-80
2023/08/23 10:40:46;;;;;;;18.60;16.70;;;;;;;25.24;74.00;96876.80;109237;1272;22519;-79
2023/08/23 10:43:16;;;;;;;20.90;18.70;;;;;;;25.23;73.68;96871.35;109234;1271;22539;-78
2023/08/23 10:45:53;;;;;;;19.40;17.50;;;;;;;25.14;73.13;96879.14;109224;1272;22536;-79
2023/08/23 10:48:23;;;;;;;19.10;17.20;;;;;;;25.11;73.32;96883.20;109223;1271;25300;-78
2023/08/23 10:50:53;;;;;;;19.10;16.80;;;;;;;25.20;73.40;96880.31;109245;1264;22642;-79
2023/08/23 10:53:23;;;;;;;17.70;15.90;;;;;;;25.24;72.98;96880.36;109284;1272;22563;-79
2023/08/23 10:55:52;;;;;;;18.10;16.20;;;;;;;25.17;72.32;96880.17;109249;1271;22586;-79
2023/08/23 10:58:21;;;;;;;17.70;15.80;;;;;;;25.18;72.45;96884.86;109253;1271;24033;-78
2023/08/23 11:00:50;;;;;;;;;;;;;;;25.30;72.41;96880.36;109239;1271;22520;-77
2023/08/23 11:03:20;;;;;;;17.60;14.80;;;;;;;25.42;71.87;96880.68;109270;1271;22527;-80
2023/08/23 11:05:49;;;;;;;16.70;15.20;;;;;;;25.49;71.61;96881.30;109259;1271;22529;-78
2023/08/23 11:08:18;;;;;;;17.70;16.00;;;;;;;25.55;71.82;96879.68;109318;1269;28852;-78
2023/08/23 11:10:47;;;;;;;20.20;18.10;;;;;;;25.65;72.16;96883.77;109302;1264;22525;-79
2023/08/23 11:13:16;;;;;;;21.80;19.50;;;;;;;25.84;72.39;96883.63;109233;1271;22593;-79
2023/08/23 11:15:45;;;;;;;22.30;20.20;;;;;;;26.02;71.89;96886.54;109326;1266;22587;-79
2023/08/23 11:18:14;;;;;;;23.50;21.20;;;;;;;25.97;70.88;96890.91;109215;1266;58000;-79
2023/08/23 11:20:43;;;;;;;23.20;21.00;;;;;;;25.76;70.49;96894.39;109277;1269;22541;-78
2023/08/23 11:23:12;;;;;;;22.40;20.30;;;;;;;25.66;70.58;96889.29;109244;1271;28046;-78
2023/08/23 11:25:40;;;;;;;24.30;21.80;;;;;;;25.80;71.27;96886.38;109213;1272;23234;-78